Latest Weather Observations for Forrest

IDW60801

Issued at 2:02 pm WST Sunday 26 April 2015 (issued every 30 minutes, with the page automatically refreshed every 10 minutes)

About weather observations | Map of weather stations | Latest weather observations for WA | Other Formats
Station Details ID: 011052 Name: FORREST Lat: -30.85 Lon: 128.11 Height: 159.0 m
Data from the previous 72 hours. | See also: Recent months at Forrest
Date/Time
WST
Temp
°C
App
Temp
°C
Dew
Point
Rel
Hum
%
Delta-T
°C
Wind Press
QNH
hPa
Press
MSL
hPa
Rain
since 9 am
mm
Dir
 
Spd
km/h
Gust
km/h
Spd
kts
Gust
kts
26/02:00pm 19.5 - 7.9 47 6.0 - - - - - 1026.5 - 0.0
26/01:30pm 19.1 - 8.1 49 5.7 - - - - - 1026.7 - 0.0
26/01:00pm 18.6 - 8.3 51 5.3 - - - - - 1026.8 - 0.0
26/12:30pm 18.1 - 8.1 52 5.1 - - - - - 1026.9 - 0.0
26/12:00pm 17.9 - 8.7 55 4.8 - - - - - 1027.3 1027.0 0.0
26/11:30am 17.8 - 8.1 53 5.0 - - - - - 1027.6 - 0.0
26/11:00am 17.3 - 8.7 57 4.5 - - - - - 1028.0 - 0.0
26/10:30am 16.8 - 8.8 59 4.1 - - - - - 1028.4 - 0.0
26/10:00am 16.8 - 9.7 63 3.7 - - - - - 1028.6 - 0.0
26/09:40am 16.5 - 9.7 64 3.6 - - - - - 1028.8 - 0.0
26/09:38am 16.8 - 10.0 64 3.6 - - - - - 1028.8 - 0.0
26/09:37am 16.7 - 9.6 63 3.7 - - - - - 1028.8 - 0.0
26/09:30am 16.7 - 9.9 64 3.6 - - - - - 1028.7 - 0.0
26/09:00am 15.6 - 10.6 72 2.6 - - - - - 1028.9 1028.6 0.0
26/08:30am 14.0 - 10.8 81 1.7 - - - - - 1029.1 - 0.0
26/08:00am 12.9 - 10.4 85 1.3 - - - - - 1029.0 - 0.0
26/07:30am 11.2 - 10.7 97 0.3 - - - - - 1028.6 - 0.0
26/07:23am 10.8 - 10.5 98 0.2 - - - - - 1028.5 - 0.0
26/07:20am 10.4 - 10.1 98 0.2 - - - - - 1028.5 - 0.0
26/07:18am 10.3 - 10.0 98 0.2 - - - - - 1028.5 - 0.0
26/07:17am 10.3 - 10.0 98 0.2 - - - - - 1028.5 - 0.0
26/07:05am 9.6 - 9.3 98 0.1 - - - - - 1028.4 - 0.0
26/07:04am 9.3 - 9.0 98 0.1 - - - - - 1028.4 - 0.0
26/07:03am 9.2 - 8.9 98 0.1 - - - - - 1028.4 - 0.0
26/07:02am 9.2 - 8.9 98 0.1 - - - - - 1028.4 - 0.0
26/07:00am 9.1 - 8.8 98 0.1 - - - - - 1028.4 - 0.0
26/06:51am 9.2 - 9.1 99 0.0 - - - - - 1028.4 - 0.0
26/06:34am 8.1 - 8.0 99 0.0 - - - - - 1028.0 - 0.0
26/06:33am 8.0 - 7.9 99 0.0 - - - - - 1028.0 - 0.0
26/06:32am 7.7 - 7.6 99 0.0 - - - - - 1028.0 - 0.0
26/06:30am 7.5 - 7.4 99 0.0 - - - - - 1028.0 - 0.0
26/06:29am 7.5 - 7.4 99 0.0 - - - - - 1028.0 - 0.0
26/06:18am 6.4 - 6.0 97 0.2 - - - - - 1028.0 - 0.0
26/06:17am 6.5 - 6.2 98 0.1 - - - - - 1028.0 - 0.0
26/06:00am 7.1 - 6.8 98 0.1 - - - - - 1027.8 1027.5 0.0
26/05:30am 7.6 - 7.3 98 0.1 - - - - - 1027.4 - 0.0
26/05:00am 7.9 - 7.6 98 0.1 - - - - - 1027.2 - 0.0
26/04:30am 7.7 - 7.4 98 0.1 - - - - - 1027.1 - 0.0
26/04:00am 7.7 - 7.4 98 0.1 - - - - - 1026.9 - 0.0
26/03:30am 7.0 - 6.7 98 0.1 - - - - - 1026.9 - 0.0
26/03:12am 6.6 - 6.2 97 0.2 - - - - - 1026.7 - 0.0
26/03:11am 6.7 - 6.3 97 0.2 - - - - - 1026.7 - 0.0
26/03:08am 6.8 - 6.4 97 0.2 - - - - - 1026.8 - 0.0
26/03:07am 6.8 - 6.4 97 0.2 - - - - - 1026.8 - 0.0
26/03:06am 6.8 - 6.4 97 0.2 - - - - - 1026.8 - 0.0
26/03:00am 6.9 - 6.5 97 0.2 - - - - - 1026.7 1026.3 0.0
26/02:30am 7.3 - 6.7 96 0.3 - - - - - 1026.5 - 0.0
26/02:00am 7.9 - 7.3 96 0.3 - - - - - 1026.7 - 0.0
26/01:30am 7.8 - 6.9 94 0.4 - - - - - 1026.9 - 0.0
26/01:00am 8.4 - 7.5 94 0.4 - - - - - 1026.6 - 0.0
26/12:30am 9.1 - 7.9 92 0.6 - - - - - 1026.8 - 0.0
26/12:00am 9.1 - 8.2 94 0.4 - - - - - 1026.8 1026.4 0.0
 
Date/Time
WST
Temp
°C
App
Temp
°C
Dew
Point
Rel
Hum
%
Delta-T
°C
Wind Press
QNH
hPa
Press
MSL
hPa
Rain
since 9 am
mm
Dir
 
Spd
km/h
Gust
km/h
Spd
kts
Gust
kts
25/11:30pm 9.2 - 8.1 93 0.5 - - - - - 1026.8 - 0.0
25/11:00pm 9.6 - 8.2 91 0.7 - - - - - 1026.8 - 0.0
25/10:30pm 10.4 - 8.8 90 0.8 - - - - - 1026.9 - 0.0
25/10:00pm 11.3 - 9.2 87 1.1 - - - - - 1027.0 - 0.0
25/09:30pm 12.5 - 9.7 83 1.4 - - - - - 1027.1 - 0.0
25/09:00pm 13.4 - 10.0 80 1.8 - - - - - 1027.1 1026.7 0.0
25/08:30pm 13.7 - 10.3 80 1.8 - - - - - 1027.0 - 0.0
25/08:00pm 13.4 - 10.0 80 1.8 - - - - - 1026.9 - 0.0
25/07:30pm 13.4 - 9.8 79 1.9 - - - - - 1026.7 - 0.0
25/07:00pm 13.6 - 10.0 79 1.9 - - - - - 1026.5 - 0.0
25/06:30pm 13.8 - 10.2 79 1.9 - - - - - 1026.2 - 0.0
25/06:00pm 14.0 - 10.0 77 2.1 - - - - - 1026.0 1025.6 0.0
25/05:30pm 14.8 - 10.2 74 2.4 - - - - - 1025.5 - 0.0
25/05:00pm 16.2 - 9.6 65 3.5 - - - - - 1025.4 - 0.0
25/04:30pm 16.8 - 9.7 63 3.7 - - - - - 1025.0 - 0.0
25/04:00pm 17.3 - 10.2 63 3.8 - - - - - 1024.6 - 0.0
25/03:30pm 18.1 - 9.5 57 4.6 - - - - - 1024.3 - 0.0
25/03:00pm 18.1 - 10.0 59 4.3 - - - - - 1024.0 1023.7 0.0
25/02:30pm 18.6 - 9.4 55 4.9 - - - - - 1023.8 - 0.0
25/02:00pm 19.0 - 8.4 50 5.5 - - - - - 1023.7 - 0.0
25/01:30pm 18.7 - 9.2 54 5.0 - - - - - 1023.9 - 0.0
25/01:00pm 18.5 - 8.7 53 5.1 - - - - - 1024.0 - 0.0
25/12:30pm 19.2 - 8.5 50 5.6 - - - - - 1024.0 - 0.0
25/12:00pm 18.6 - 9.1 54 5.0 - - - - - 1024.5 1024.2 0.0
25/11:30am 17.8 - 7.8 52 5.1 - - - - - 1025.0 - 0.0
25/11:00am 18.0 - 9.1 56 4.7 - - - - - 1025.3 - 0.0
25/10:30am 17.4 - 9.6 60 4.1 - - - - - 1025.7 - 0.0
25/10:00am 17.5 - 9.9 61 4.0 - - - - - 1026.0 - 0.0
25/09:30am 17.0 - 10.8 67 3.3 - - - - - 1026.2 - 0.0
25/09:00am 15.6 - 10.8 73 2.6 - - - - - 1026.3 1025.9 0.2
25/08:30am 15.0 - 10.8 76 2.2 - - - - - 1026.2 - 0.2
25/08:00am 13.2 - 10.7 85 1.3 - - - - - 1026.0 - 0.2
25/07:30am 11.8 - 11.0 95 0.4 - - - - - 1025.7 - 0.2
25/07:00am 10.5 - 10.3 99 0.1 - - - - - 1025.4 - 0.2
25/06:30am 9.5 - 9.4 99 0.1 - - - - - 1025.2 - 0.2
25/06:00am 9.2 - 8.9 98 0.1 - - - - - 1024.7 1024.4 0.2
25/05:30am 9.1 - 8.8 98 0.1 - - - - - 1024.6 - 0.0
25/05:00am 9.2 - 8.9 98 0.1 - - - - - 1024.6 - 0.0
25/04:30am 9.4 - 8.9 97 0.2 - - - - - 1024.4 - 0.0
25/04:00am 9.8 - 9.3 97 0.3 - - - - - 1024.3 - 0.0
25/03:30am 10.1 - 9.6 97 0.3 - - - - - 1024.3 - 0.0
25/03:00am 10.2 - 9.6 96 0.3 - - - - - 1024.3 1024.0 0.0
25/02:30am 10.7 - 10.1 96 0.3 - - - - - 1024.2 - 0.0
25/02:00am 10.8 - 9.7 93 0.6 - - - - - 1024.3 - 0.0
25/01:30am 10.0 - 8.8 92 0.6 - - - - - 1024.3 - 0.0
25/01:00am 10.3 - 9.1 92 0.6 - - - - - 1024.5 - 0.0
25/12:30am 9.7 - 7.8 88 0.9 - - - - - 1024.4 - 0.0
25/12:00am 9.4 - 7.5 88 0.9 - - - - - 1024.5 1024.2 0.0
 
Date/Time
WST
Temp
°C
App
Temp
°C
Dew
Point
Rel
Hum
%
Delta-T
°C
Wind Press
QNH
hPa
Press
MSL
hPa
Rain
since 9 am
mm
Dir
 
Spd
km/h
Gust
km/h
Spd
kts
Gust
kts
24/11:30pm 9.9 - 7.7 86 1.1 - - - - - 1024.5 - 0.0
24/11:00pm 10.4 - 7.8 84 1.3 - - - - - 1024.5 - 0.0
24/10:30pm 11.3 - 8.7 84 1.3 - - - - - 1024.5 - 0.0
24/10:00pm 11.2 - 8.9 86 1.2 - - - - - 1024.6 - 0.0
24/09:30pm 10.4 - 7.3 81 1.5 - - - - - 1024.9 - 0.0
24/09:00pm 10.4 - 6.9 79 1.7 - - - - - 1025.0 1024.6 0.0
24/08:30pm 11.3 - 7.2 76 2.0 - - - - - 1025.0 - 0.0
24/08:00pm 11.9 - 7.6 75 2.1 - - - - - 1024.9 - 0.0
24/07:30pm 11.7 - 7.0 73 2.3 - - - - - 1024.6 - 0.0
24/07:00pm 12.6 - 7.3 70 2.6 - - - - - 1024.3 - 0.0
24/06:30pm 13.5 - 7.3 66 3.0 - - - - - 1024.1 - 0.0
24/06:00pm 13.6 - 7.8 68 2.9 - - - - - 1023.9 1023.6 0.0
24/05:30pm 14.2 - 7.3 63 3.4 - - - - - 1023.4 - 0.0
24/05:00pm 14.3 - 7.8 65 3.2 - - - - - 1023.2 - 0.0
24/04:30pm 15.4 - 6.9 57 4.2 - - - - - 1023.0 - 0.0
24/04:00pm 16.8 - 6.0 49 5.3 - - - - - 1022.6 - 0.0
24/03:30pm 16.6 - 5.3 47 5.5 - - - - - 1022.6 - 0.0
24/03:00pm 16.5 - 4.9 46 5.5 - - - - - 1022.6 1022.3 0.0
24/02:30pm 16.1 - 6.3 52 4.8 - - - - - 1022.8 - 0.0
24/02:00pm 16.6 - 6.4 51 5.0 - - - - - 1022.7 - 0.0
24/01:30pm 17.1 - 4.8 44 5.9 - - - - - 1022.4 - 0.0
24/01:00pm 17.5 - 4.5 42 6.2 - - - - - 1022.4 - 0.0
24/12:30pm 17.2 - 4.5 43 6.1 - - - - - 1022.8 - 0.0
24/12:10pm 16.9 - 4.6 44 5.9 - - - - - 1022.9 - 0.0
24/12:00pm 16.6 - 4.9 46 5.6 - - - - - 1022.9 1022.6 0.0
24/11:30am 15.9 - 5.5 50 5.0 - - - - - 1023.3 - 0.0
24/11:00am 15.7 - 6.2 53 4.6 - - - - - 1023.6 - 0.0
24/10:30am 15.6 - 5.5 51 4.9 - - - - - 1023.8 - 0.0
24/10:00am 15.5 - 4.8 49 5.1 - - - - - 1024.0 - 0.0
24/09:30am 14.8 - 5.6 54 4.4 - - - - - 1024.0 - 0.0
24/09:00am 14.9 - 4.9 51 4.7 - - - - - 1023.8 1023.5 0.0
24/08:52am 14.7 - 4.7 51 4.7 - - - - - 1023.6 - 0.0
24/08:30am 14.5 - 6.3 58 4.0 - - - - - 1023.5 - 0.0
24/08:00am 13.9 - 6.3 60 3.7 - - - - - 1023.4 - 0.0
24/07:30am 13.9 - 6.3 60 3.7 - - - - - 1023.1 - 0.0
24/07:00am 13.5 - 7.3 66 3.0 - - - - - 1022.7 - 0.0
24/06:30am 13.3 - 7.7 69 2.8 - - - - - 1022.4 - 0.0
24/06:00am 13.0 - 9.1 77 2.0 - - - - - 1021.9 1021.6 0.0
24/05:30am 13.0 - 9.4 79 1.8 - - - - - 1021.5 - 0.0
24/05:00am 13.3 - 9.9 80 1.8 - - - - - 1021.2 - 0.0
24/04:30am 13.2 - 10.7 85 1.3 - - - - - 1020.9 - 0.0
24/04:00am 13.3 - 10.8 85 1.3 - - - - - 1020.7 - 0.0
24/03:30am 13.6 - 11.5 87 1.1 - - - - - 1020.5 - 0.0
24/03:00am 13.7 - 11.6 87 1.1 - - - - - 1020.1 1019.7 0.0
24/02:30am 13.3 - 11.5 89 1.0 - - - - - 1019.9 - 0.0
24/02:00am 12.5 - 10.7 89 0.9 - - - - - 1019.8 - 0.0
24/01:30am 12.5 - 10.4 87 1.1 - - - - - 1019.8 - 0.0
24/01:00am 13.0 - 10.7 86 1.2 - - - - - 1020.1 - 0.0
24/12:30am 13.1 - 10.5 84 1.4 - - - - - 1020.2 - 0.0
24/12:00am 13.2 - 10.0 81 1.7 - - - - - 1020.1 1019.7 0.0
 
Date/Time
WST
Temp
°C
App
Temp
°C
Dew
Point
Rel
Hum
%
Delta-T
°C
Wind Press
QNH
hPa
Press
MSL
hPa
Rain
since 9 am
mm
Dir
 
Spd
km/h
Gust
km/h
Spd
kts
Gust
kts
23/11:30pm 12.9 - 9.7 81 1.6 - - - - - 1020.0 - 0.0
23/11:00pm 13.2 - 9.8 80 1.8 - - - - - 1019.9 - 0.0
23/10:30pm 13.8 - 10.0 78 2.0 - - - - - 1019.9 - 0.0
23/10:00pm 14.4 - 10.2 76 2.2 - - - - - 1020.1 - 0.0
23/09:30pm 14.1 - 9.3 73 2.5 - - - - - 1020.1 - 0.0
23/09:00pm 13.9 - 6.7 62 3.5 - - - - - 1020.2 1019.8 0.0
23/08:30pm 14.5 - 5.6 55 4.3 - - - - - 1020.1 - 0.0
23/08:00pm 15.7 - 4.1 46 5.4 - - - - - 1019.9 - 0.0
23/07:30pm 17.1 - 3.4 40 6.4 - - - - - 1019.6 - 0.0
23/07:00pm 17.9 - 2.2 35 7.2 - - - - - 1019.1 - 0.0
23/06:30pm 18.4 - 2.3 34 7.4 - - - - - 1018.7 - 0.0
23/06:06pm 19.5 - 0.0 27 8.6 - - - - - 1018.3 - 0.0
23/06:00pm 19.1 - -0.8 26 8.6 - - - - - 1017.9 1017.6 0.0
23/05:30pm 20.2 - -0.4 25 9.1 - - - - - 1017.7 - 0.0
23/05:00pm 22.7 - -0.7 21 10.5 - - - - - 1017.4 - 0.0
23/04:30pm 23.8 - -1.2 19 11.2 - - - - - 1017.2 - 0.0
23/04:00pm 24.2 - -1.6 18 11.5 - - - - - 1017.1 - 0.0
23/03:30pm 24.5 - -1.3 18 11.6 - - - - - 1017.0 - 0.0
23/03:00pm 25.2 - 0.0 19 11.7 - - - - - 1017.1 1016.8 0.0
23/02:30pm 25.0 - 0.5 20 11.5 - - - - - 1017.0 - 0.0

Other Formats:

Comma delimited format used in spreadsheet applications
http://www.bom.gov.au/fwo/IDW60801/IDW60801.95646.axf

JavaScript Object Notation format (JSON) in row-major order
http://www.bom.gov.au/fwo/IDW60801/IDW60801.95646.json